Time;durP1;ratioP1;P1;durP2;ratioP2;P2;SDS_P1;SDS_P2;PMS_P1;PMS_P2;Temp;Humidity;BMP_temperature;BMP_pressure;BME280_temperature;BME280_humidity;BME280_pressure;Samples;Min_cycle;Max_cycle;Signal;HPM_P1;HPM_P2
2021/03/13 00:00:51;;;;;;;10.32;2.67;;;10.00;69.00;;;;;;5006794;28;20518;-79
2021/03/13 00:03:17;;;;;;;12.43;3.47;;;10.00;69.10;;;;;;5006600;28;20060;-79
2021/03/13 00:05:45;;;;;;;10.63;3.03;;;10.00;69.10;;;;;;5005039;28;20026;-79
2021/03/13 00:08:12;;;;;;;14.57;2.95;;;9.90;68.90;;;;;;4988896;28;20529;-79
2021/03/13 00:10:40;;;;;;;7.00;2.63;;;9.90;68.90;;;;;;5021232;28;20041;-79
2021/03/13 00:13:06;;;;;;;10.18;2.72;;;9.90;69.00;;;;;;5005348;28;20401;-80
2021/03/13 00:15:33;;;;;;;11.50;3.58;;;9.90;69.00;;;;;;5004959;28;20033;-78
2021/03/13 00:18:00;;;;;;;9.38;3.17;;;9.80;68.90;;;;;;5004991;28;20488;-79
2021/03/13 00:20:29;;;;;;;9.15;2.40;;;9.80;68.90;;;;;;5021173;28;20179;-78
2021/03/13 00:22:56;;;;;;;15.00;3.75;;;9.80;68.90;;;;;;5004958;28;20164;-79
2021/03/13 00:25:24;;;;;;;11.55;3.80;;;9.80;69.00;;;;;;5004533;28;20128;-79
2021/03/13 00:27:51;;;;;;;9.63;2.88;;;9.80;69.00;;;;;;5005044;28;20030;-79
2021/03/13 00:30:27;;;;;;;12.77;3.92;;;9.80;69.00;;;;;;4988475;28;20041;-79
2021/03/13 00:33:18;;;;;;;9.23;2.88;;;9.70;68.90;;;;;;5020903;28;20049;-79
2021/03/13 00:35:46;;;;;;;14.95;3.38;;;9.70;68.90;;;;;;5021172;28;20042;-79
2021/03/13 00:38:13;;;;;;;12.23;3.63;;;9.70;68.90;;;;;;4988766;28;20076;-78
2021/03/13 00:40:42;;;;;;;9.48;3.15;;;9.60;68.70;;;;;;4989093;28;20030;-78
2021/03/13 00:43:09;;;;;;;11.85;3.58;;;9.60;68.70;;;;;;5004536;28;20026;-78
2021/03/13 00:45:36;;;;;;;12.73;3.78;;;9.70;68.90;;;;;;5005706;28;20211;-78
2021/03/13 00:48:04;;;;;;;9.85;2.95;;;9.60;68.80;;;;;;5004517;28;20470;-79
2021/03/13 00:50:34;;;;;;;12.60;3.03;;;9.60;68.80;;;;;;5004763;28;20029;-79
2021/03/13 00:53:01;;;;;;;15.27;3.35;;;9.60;68.80;;;;;;5004143;28;20042;-79
2021/03/13 00:55:27;;;;;;;14.75;4.20;;;9.60;68.80;;;;;;5004789;28;20366;-80
2021/03/13 00:57:59;;;;;;;8.85;3.15;;;9.50;68.60;;;;;;5004648;28;20088;-79
2021/03/13 01:00:26;;;;;;;12.07;4.20;;;9.50;68.60;;;;;;5004930;28;20449;-80
2021/03/13 01:02:53;;;;;;;14.38;4.40;;;9.50;68.60;;;;;;5005349;28;20033;-79
2021/03/13 01:05:21;;;;;;;19.00;5.05;;;9.40;68.50;;;;;;4988756;28;20029;-78
2021/03/13 01:07:47;;;;;;;13.35;3.72;;;9.40;68.50;;;;;;5005742;28;20076;-80
2021/03/13 01:10:22;;;;;;;17.88;4.18;;;9.40;68.60;;;;;;4987977;28;20121;-79
2021/03/13 01:12:48;;;;;;;16.08;5.07;;;9.40;68.70;;;;;;5005427;28;20497;-80
2021/03/13 01:15:18;;;;;;;11.50;3.38;;;9.40;68.70;;;;;;5017758;28;20330;-79
2021/03/13 01:17:46;;;;;;;13.68;4.65;;;9.30;68.50;;;;;;5004565;28;20033;-80
2021/03/13 01:20:14;;;;;;;15.75;5.25;;;9.30;68.50;;;;;;5004199;28;20120;-80
2021/03/13 01:22:42;;;;;;;18.85;5.15;;;9.30;68.50;;;;;;5020216;28;20067;-80
2021/03/13 01:25:10;;;;;;;21.35;4.63;;;9.30;68.50;;;;;;4984241;28;20338;-80
2021/03/13 01:27:36;;;;;;;12.25;4.43;;;9.30;68.50;;;;;;4984168;28;20027;-80
2021/03/13 01:30:09;;;;;;;15.93;5.07;;;9.20;68.40;;;;;;4983541;28;20253;-79
2021/03/13 01:32:35;;;;;;;17.02;5.47;;;9.20;68.40;;;;;;5003746;28;20054;-78
2021/03/13 01:35:02;;;;;;;20.35;4.97;;;9.20;68.40;;;;;;4984655;28;20337;-78
2021/03/13 01:37:28;;;;;;;12.75;4.57;;;9.10;68.20;;;;;;4985473;28;20068;-78
2021/03/13 01:39:56;;;;;;;15.98;5.47;;;9.10;68.30;;;;;;5004011;28;20501;-78
2021/03/13 01:42:25;;;;;;;13.45;4.07;;;9.10;68.30;;;;;;4988463;28;20037;-80
2021/03/13 01:44:56;;;;;;;17.98;5.47;;;9.10;68.30;;;;;;5004737;28;20054;-78
2021/03/13 01:47:27;;;;;;;16.75;4.93;;;9.10;68.30;;;;;;5004058;28;20141;-80
2021/03/13 01:49:57;;;;;;;15.00;6.03;;;9.00;68.20;;;;;;4987809;28;20025;-79
2021/03/13 01:52:32;;;;;;;18.75;6.05;;;9.00;68.20;;;;;;5003743;28;20543;-79
2021/03/13 01:55:01;;;;;;;21.27;5.65;;;9.00;68.20;;;;;;5003668;28;20113;-79
2021/03/13 01:57:29;;;;;;;19.40;6.28;;;9.00;68.20;;;;;;5003701;28;20073;-79
2021/03/13 01:59:56;;;;;;;25.75;5.90;;;9.00;68.70;;;;;;5020063;28;20140;-79
2021/03/13 02:02:22;;;;;;;17.65;6.13;;;9.00;68.20;;;;;;5020127;28;20037;-78
2021/03/13 02:04:48;;;;;;;16.42;5.43;;;8.90;68.00;;;;;;4986917;28;20026;-78
2021/03/13 02:07:25;;;;;;;18.92;6.15;;;8.90;68.10;;;;;;5004241;28;20446;-79
2021/03/13 02:10:13;;;;;;;14.85;5.10;;;8.90;68.10;;;;;;5021031;28;20405;-80
2021/03/13 02:12:54;;;;;;;18.45;5.80;;;8.90;68.10;;;;;;5020483;28;20053;-79
2021/03/13 02:15:30;;;;;;;13.48;5.15;;;8.80;67.90;;;;;;5006002;28;20037;-80
2021/03/13 02:18:24;;;;;;;24.27;6.45;;;8.80;67.90;;;;;;5007402;28;20030;-79
2021/03/13 02:21:01;;;;;;;23.38;6.07;;;8.80;67.90;;;;;;5000442;28;20096;-78
2021/03/13 02:23:35;;;;;;;22.00;6.88;;;8.80;67.90;;;;;;5007681;28;20468;-79
2021/03/13 02:27:04;;;;;;;27.83;6.72;;;8.80;68.00;;;;;;5008650;28;20076;-79
2021/03/13 02:29:44;;;;;;;20.33;5.45;;;8.70;67.80;;;;;;4993060;28;20076;-79
2021/03/13 02:32:43;;;;;;;21.98;6.30;;;8.70;67.80;;;;;;4994334;28;20378;-78
2021/03/13 02:35:22;;;;;;;21.63;6.27;;;8.70;67.90;;;;;;5008716;28;20033;-79
2021/03/13 02:37:54;;;;;;;25.75;6.35;;;8.60;67.70;;;;;;5009075;28;20041;-79
2021/03/13 02:40:27;;;;;;;18.80;6.28;;;8.70;67.90;;;;;;5010364;28;20168;-79
2021/03/13 02:43:00;;;;;;;15.48;6.32;;;8.60;67.80;;;;;;4992842;28;20144;-79
2021/03/13 02:45:32;;;;;;;22.73;5.15;;;8.60;67.80;;;;;;4991931;28;20042;-78
2021/03/13 02:48:01;;;;;;;18.13;6.10;;;8.60;67.80;;;;;;4995601;28;20137;-78
2021/03/13 02:50:30;;;;;;;14.82;6.07;;;8.60;67.90;;;;;;5011204;28;20040;-79
2021/03/13 02:53:04;;;;;;;15.27;6.18;;;8.60;67.90;;;;;;5011082;28;20061;-79
2021/03/13 02:55:31;;;;;;;27.70;6.65;;;8.60;68.00;;;;;;5011281;28;20553;-80
2021/03/13 02:58:00;;;;;;;23.45;5.82;;;8.50;67.80;;;;;;4995073;28;20124;-80
2021/03/13 03:00:31;;;;;;;23.73;6.03;;;8.50;67.80;;;;;;5011467;28;20125;-79
2021/03/13 03:03:00;;;;;;;17.33;4.93;;;8.50;67.80;;;;;;5011519;28;20046;-79
2021/03/13 03:05:39;;;;;;;15.25;5.55;;;8.50;67.80;;;;;;5011303;28;20030;-80
2021/03/13 03:08:07;;;;;;;23.55;7.18;;;8.50;67.80;;;;;;5011266;28;20504;-79
2021/03/13 03:10:42;;;;;;;17.13;5.97;;;8.50;67.90;;;;;;5011232;28;20084;-80
2021/03/13 03:13:10;;;;;;;15.35;4.90;;;8.50;67.90;;;;;;5010792;28;20153;-80
2021/03/13 03:15:36;;;;;;;23.08;6.40;;;8.50;67.90;;;;;;5012021;28;20030;-81
2021/03/13 03:18:08;;;;;;;18.88;5.47;;;8.50;67.90;;;;;;4995105;28;20151;-80
2021/03/13 03:20:36;;;;;;;18.85;5.13;;;8.50;67.90;;;;;;5010904;28;20064;-80
2021/03/13 03:23:03;;;;;;;26.52;5.78;;;8.50;67.90;;;;;;5011014;28;20053;-81
2021/03/13 03:25:29;;;;;;;17.42;5.32;;;8.50;67.90;;;;;;5010363;28;20022;-79
2021/03/13 03:27:56;;;;;;;20.50;5.93;;;8.50;67.90;;;;;;5011448;28;20526;-80
2021/03/13 03:30:43;;;;;;;19.58;6.18;;;8.40;67.80;;;;;;4997532;28;20165;-80
2021/03/13 03:33:09;;;;;;;21.48;6.35;;;8.50;67.90;;;;;;5010458;28;20448;-80
2021/03/13 03:35:42;;;;;;;19.73;5.45;;;8.50;68.00;;;;;;5010736;28;20041;-81
2021/03/13 03:38:10;;;;;;;25.60;6.88;;;8.40;67.80;;;;;;5010610;28;20030;-78
2021/03/13 03:40:37;;;;;;;22.63;5.20;;;8.40;67.80;;;;;;5011820;28;20092;-79
2021/03/13 03:43:13;;;;;;;22.92;6.93;;;8.40;67.80;;;;;;4995268;28;20154;-81
2021/03/13 03:45:42;;;;;;;16.75;4.43;;;8.40;67.90;;;;;;4994319;28;20034;-81
2021/03/13 03:48:13;;;;;;;21.38;5.65;;;8.40;67.90;;;;;;5010234;28;20101;-80
2021/03/13 03:50:43;;;;;;;;;;;8.40;67.90;;;;;;5010860;28;20033;-80
2021/03/13 03:53:24;;;;;;;13.18;4.18;;;8.40;67.80;;;;;;5010399;28;19917;-79
2021/03/13 03:55:54;;;;;;;17.02;3.97;;;8.40;67.70;;;;;;5010635;28;20049;-79
2021/03/13 03:58:26;;;;;;;12.02;4.40;;;8.40;67.80;;;;;;5027174;28;20034;-79
2021/03/13 04:00:54;;;;;;;17.30;5.22;;;8.40;67.80;;;;;;5008418;28;20041;-80
2021/03/13 04:03:22;;;;;;;11.02;3.85;;;8.30;67.60;;;;;;5001519;28;20113;-79
2021/03/13 04:05:49;;;;;;;14.20;5.38;;;8.30;67.70;;;;;;5006821;28;20045;-79
2021/03/13 04:08:17;;;;;;;16.23;4.72;;;8.30;67.70;;;;;;4990952;28;20062;-80
2021/03/13 04:10:51;;;;;;;14.95;5.18;;;8.30;67.70;;;;;;5006445;28;20398;-80
2021/03/13 04:13:20;;;;;;;14.70;5.20;;;8.30;67.80;;;;;;4990544;28;20046;-79
2021/03/13 04:15:48;;;;;;;16.73;4.95;;;8.30;67.80;;;;;;5001507;28;20056;-79
2021/03/13 04:18:16;;;;;;;16.77;4.28;;;8.30;67.80;;;;;;4993249;28;20038;-80
2021/03/13 04:20:45;;;;;;;13.50;4.88;;;8.30;67.80;;;;;;5011742;28;20343;-79
2021/03/13 04:23:13;;;;;;;17.98;5.55;;;8.30;67.80;;;;;;5009992;28;20022;-79
2021/03/13 04:25:41;;;;;;;15.15;5.10;;;8.20;67.60;;;;;;5009416;28;20169;-79
2021/03/13 04:28:07;;;;;;;15.00;4.20;;;8.20;67.70;;;;;;5010071;28;20354;-78
2021/03/13 04:30:34;;;;;;;11.63;4.05;;;8.20;67.70;;;;;;5011248;28;20041;-79
2021/03/13 04:33:01;;;;;;;16.45;5.90;;;8.20;67.70;;;;;;5009861;28;20042;-79
2021/03/13 04:35:29;;;;;;;14.40;4.40;;;8.20;67.70;;;;;;5009561;28;20032;-80
2021/03/13 04:37:57;;;;;;;14.90;4.65;;;8.20;67.80;;;;;;5008930;28;20129;-80
2021/03/13 04:40:24;;;;;;;17.17;4.15;;;8.20;67.80;;;;;;5010140;28;20377;-79
2021/03/13 04:42:51;;;;;;;13.00;5.00;;;8.10;67.60;;;;;;5009670;28;20045;-79
2021/03/13 04:45:17;;;;;;;15.07;4.75;;;8.10;67.60;;;;;;5009574;28;20026;-79
2021/03/13 04:47:49;;;;;;;14.38;4.90;;;8.10;67.60;;;;;;5009771;28;20050;-81
2021/03/13 04:50:18;;;;;;;13.98;4.63;;;8.10;67.70;;;;;;5009349;28;20413;-80
2021/03/13 04:52:44;;;;;;;11.63;4.07;;;8.10;67.70;;;;;;5009431;28;20162;-81
2021/03/13 04:55:11;;;;;;;12.55;4.80;;;8.10;67.70;;;;;;5009464;28;20108;-80
2021/03/13 04:57:45;;;;;;;14.75;4.43;;;8.10;67.70;;;;;;5107544;27;20852;-79
2021/03/13 05:00:14;;;;;;;17.08;5.32;;;8.10;67.80;;;;;;5108126;28;20057;-79
2021/03/13 05:02:40;;;;;;;19.50;4.25;;;8.10;67.80;;;;;;5107855;28;20046;-78
2021/03/13 05:05:07;;;;;;;18.58;5.40;;;8.10;67.80;;;;;;5105518;28;20085;-78
2021/03/13 05:07:33;;;;;;;19.50;5.22;;;8.10;67.80;;;;;;5089064;28;20118;-79
2021/03/13 05:09:59;;;;;;;12.63;4.97;;;8.10;67.80;;;;;;5106088;28;20020;-79
2021/03/13 05:12:25;;;;;;;22.85;4.85;;;8.10;67.80;;;;;;5106040;28;20043;-79
2021/03/13 05:14:51;;;;;;;15.02;5.22;;;8.10;67.80;;;;;;5107019;28;20032;-77
2021/03/13 05:17:17;;;;;;;10.52;4.85;;;8.10;67.80;;;;;;5109032;28;20108;-78
2021/03/13 05:19:43;;;;;;;11.73;3.92;;;8.10;67.80;;;;;;5127621;27;20385;-79
2021/03/13 05:22:11;;;;;;;14.38;5.22;;;8.10;67.80;;;;;;5109462;28;20027;-79
2021/03/13 05:24:37;;;;;;;13.55;4.38;;;8.10;67.90;;;;;;5109376;28;20035;-79
2021/03/13 05:27:03;;;;;;;7.78;3.50;;;8.10;67.90;;;;;;5125971;28;20126;-80
2021/03/13 05:29:30;;;;;;;12.15;4.90;;;8.10;67.90;;;;;;5125877;28;20038;-78
2021/03/13 05:31:56;;;;;;;15.60;4.88;;;8.10;67.90;;;;;;5126339;28;20337;-78
2021/03/13 05:34:22;;;;;;;9.52;3.50;;;8.10;67.90;;;;;;5127526;27;20378;-78
2021/03/13 05:36:48;;;;;;;13.68;4.95;;;8.10;67.90;;;;;;5125697;27;20054;-78
2021/03/13 05:39:14;;;;;;;12.63;3.83;;;8.00;67.70;;;;;;5108858;28;20415;-78
2021/03/13 05:41:41;;;;;;;10.25;3.85;;;8.00;67.80;;;;;;5127676;27;20130;-78
2021/03/13 05:44:07;;;;;;;9.73;3.67;;;8.00;67.80;;;;;;5109118;28;20391;-78
2021/03/13 05:46:35;;;;;;;12.82;3.50;;;8.00;67.80;;;;;;5108904;28;20120;-77
2021/03/13 05:49:06;;;;;;;10.20;3.83;;;8.00;67.80;;;;;;5083848;28;20032;-78
2021/03/13 05:51:37;;;;;;;13.80;4.45;;;8.00;67.80;;;;;;5098664;28;20036;-78
2021/03/13 05:54:07;;;;;;;8.65;3.67;;;8.00;67.90;;;;;;5083776;28;20024;-78
2021/03/13 05:56:33;;;;;;;15.90;4.78;;;8.00;67.90;;;;;;5083244;28;20056;-78
2021/03/13 05:59:00;;;;;;;14.35;3.42;;;8.00;67.90;;;;;;5095587;28;20032;-78
2021/03/13 06:01:28;;;;;;;7.28;3.78;;;8.00;67.90;;;;;;5102420;28;20042;-78
2021/03/13 06:03:55;;;;;;;8.95;2.88;;;8.00;67.90;;;;;;5099074;28;20024;-80
2021/03/13 06:06:26;;;;;;;14.57;3.90;;;8.00;67.90;;;;;;5083963;28;20043;-80
2021/03/13 06:08:55;;;;;;;9.52;3.75;;;7.90;67.80;;;;;;5088050;28;20356;-80
2021/03/13 06:11:23;;;;;;;9.13;3.08;;;7.90;67.80;;;;;;5088283;28;20028;-78
2021/03/13 06:13:49;;;;;;;11.45;3.00;;;7.90;67.80;;;;;;5086498;28;20031;-78
2021/03/13 06:16:16;;;;;;;7.60;3.90;;;7.90;67.80;;;;;;5100305;28;20051;-80
2021/03/13 06:18:48;;;;;;;7.40;2.90;;;7.90;67.80;;;;;;5097538;27;20436;-77
2021/03/13 06:21:31;;;;;;;8.70;3.67;;;7.90;67.80;;;;;;5070050;28;20543;-83
2021/03/13 06:24:24;;;;;;;18.50;3.78;;;7.90;67.50;;;;;;5067624;28;20198;-83
2021/03/13 06:26:56;;;;;;;16.45;4.57;;;7.90;68.00;;;;;;5050856;28;20028;-87
2021/03/13 06:29:23;;;;;;;13.77;3.30;;;8.00;68.50;;;;;;5083337;28;20106;-82
2021/03/13 06:32:10;;;;;;;11.63;4.18;;;8.10;69.00;;;;;;5071636;28;20035;-82
2021/03/13 06:34:37;;;;;;;12.20;3.53;;;8.30;69.60;;;;;;5067627;28;20033;-80
2021/03/13 06:37:23;;;;;;;9.30;3.67;;;8.50;69.70;;;;;;5066691;28;20055;-81
2021/03/13 06:39:50;;;;;;;10.32;3.35;;;8.70;70.20;;;;;;5067739;28;20487;-78
2021/03/13 06:42:23;;;;;;;14.07;3.78;;;8.80;70.00;;;;;;5068018;28;20064;-84
2021/03/13 06:45:00;;;;;;;7.78;3.03;;;9.00;70.50;;;;;;5087436;28;20139;-86
2021/03/13 06:47:33;;;;;;;14.65;3.80;;;9.10;70.60;;;;;;5087412;28;20073;-83
2021/03/13 06:50:16;;;;;;;;;;;9.20;70.70;;;;;;5071345;28;20027;-84
2021/03/13 06:52:50;;;;;;;10.50;3.80;;;9.40;70.70;;;;;;5087026;28;20351;-88
2021/03/13 06:55:24;;;;;;;14.35;3.85;;;9.40;70.30;;;;;;5070679;28;20448;-87
2021/03/13 06:57:52;;;;;;;8.75;3.78;;;9.40;70.40;;;;;;5070710;28;20040;-86
2021/03/13 07:00:30;;;;;;;12.13;4.72;;;9.40;70.50;;;;;;5087542;28;20059;-82
2021/03/13 07:03:13;;;;;;;13.18;4.28;;;9.40;70.60;;;;;;5071215;28;20131;-83
2021/03/13 07:05:41;;;;;;;13.35;4.18;;;9.40;70.70;;;;;;5071312;28;20036;-83
2021/03/13 07:08:43;;;;;;;11.73;3.75;;;9.40;70.90;;;;;;5069983;28;20036;-88
2021/03/13 07:11:09;;;;;;;16.15;4.72;;;9.40;70.90;;;;;;5005729;28;20516;-81
2021/03/13 07:13:38;;;;;;;17.23;4.45;;;9.40;70.80;;;;;;5041815;28;20039;-85
2021/03/13 07:16:26;;;;;;;16.67;4.47;;;9.40;71.00;;;;;;5102154;28;20035;-81
2021/03/13 07:18:57;;;;;;;11.23;4.45;;;9.50;71.20;;;;;;5073711;28;20452;-82
2021/03/13 07:21:24;;;;;;;15.00;3.95;;;9.40;71.20;;;;;;5065378;28;20157;-83
2021/03/13 07:24:06;;;;;;;9.43;3.90;;;9.50;71.60;;;;;;5066594;28;20077;-80
2021/03/13 07:26:38;;;;;;;9.95;4.38;;;9.60;71.90;;;;;;5066837;28;20024;-88
2021/03/13 07:29:07;;;;;;;15.80;4.45;;;9.60;71.80;;;;;;5080242;28;20055;-86
2021/03/13 07:31:43;;;;;;;11.95;4.00;;;9.70;71.90;;;;;;5070239;28;20066;-92
2021/03/13 07:34:20;;;;;;;14.73;4.38;;;9.70;72.00;;;;;;5067549;28;20032;-80
2021/03/13 07:36:56;;;;;;;10.38;3.70;;;9.70;72.00;;;;;;5067203;28;20051;-85
2021/03/13 07:39:32;;;;;;;7.45;3.08;;;9.70;71.90;;;;;;5086062;28;20042;-81
2021/03/13 07:42:19;;;;;;;13.50;3.97;;;9.60;71.70;;;;;;5096289;28;20092;-85
2021/03/13 07:44:46;;;;;;;12.13;3.95;;;9.70;72.00;;;;;;5088691;28;20028;-90
2021/03/13 07:47:19;;;;;;;11.18;4.28;;;9.70;71.90;;;;;;5084029;28;20028;-78
2021/03/13 07:49:46;;;;;;;10.60;4.43;;;9.70;72.00;;;;;;5079060;28;20050;-81
2021/03/13 07:52:16;;;;;;;13.27;3.97;;;9.70;72.00;;;;;;5076413;28;20467;-78
2021/03/13 07:54:46;;;;;;;18.00;4.03;;;9.80;72.10;;;;;;5086279;28;20579;-82
2021/03/13 07:57:15;;;;;;;14.90;4.35;;;9.80;72.20;;;;;;5085091;28;20075;-87
2021/03/13 07:59:45;;;;;;;13.27;4.00;;;9.80;72.10;;;;;;5066785;28;20132;-81
2021/03/13 08:02:30;;;;;;;14.50;4.15;;;9.90;72.30;;;;;;5083121;28;20036;-85
2021/03/13 08:04:57;;;;;;;;;;;9.90;72.30;;;;;;5086487;28;20278;-82
2021/03/13 08:07:24;;;;;;;14.32;3.55;;;9.90;72.00;;;;;;5086364;28;19912;-87
2021/03/13 08:09:50;;;;;;;13.63;3.75;;;10.00;71.90;;;;;;5088434;28;20028;-83
2021/03/13 08:12:43;;;;;;;10.88;4.43;;;10.00;71.80;;;;;;5084287;28;20058;-84
2021/03/13 08:15:42;;;;;;;11.18;3.85;;;10.00;71.80;;;;;;5061787;28;20067;-78
2021/03/13 08:18:12;;;;;;;11.80;2.90;;;10.00;71.80;;;;;;5070640;28;20044;-80
2021/03/13 08:20:39;;;;;;;12.00;3.58;;;10.00;71.60;;;;;;5087262;28;20089;-83
2021/03/13 08:23:11;;;;;;;14.43;3.63;;;10.00;71.60;;;;;;5089776;28;20402;-83
2021/03/13 08:25:55;;;;;;;11.05;3.20;;;10.00;71.60;;;;;;5086502;28;20515;-87
2021/03/13 08:28:50;;;;;;;13.15;2.97;;;10.00;72.30;;;;;;5088218;28;20028;-82
2021/03/13 08:31:21;;;;;;;;;;;10.20;73.20;;;;;;5086399;28;20028;-89
2021/03/13 08:33:58;;;;;;;28.15;3.50;;;10.40;73.10;;;;;;5064169;28;19908;-85
2021/03/13 08:36:29;;;;;;;14.00;3.28;;;10.60;73.10;;;;;;5047713;28;20032;-78
2021/03/13 08:38:55;;;;;;;16.10;3.50;;;10.90;73.70;;;;;;5060361;28;20082;-83
2021/03/13 08:44:20;;;;;;;15.35;2.92;;;11.10;74.10;;;;;;5075632;28;20032;-83
2021/03/13 08:46:59;;;;;;;12.88;3.58;;;11.20;74.10;;;;;;5085225;28;20089;-83
2021/03/13 08:49:25;;;;;;;13.02;3.53;;;11.30;74.60;;;;;;5085248;28;20028;-86
2021/03/13 08:52:10;;;;;;;11.77;3.40;;;11.40;74.60;;;;;;5086602;28;20464;-83
2021/03/13 08:54:39;;;;;;;;;;;11.60;75.10;;;;;;5066239;28;20033;-82
2021/03/13 08:57:06;;;;;;;12.82;3.83;;;11.70;74.90;;;;;;5065437;28;19920;-82
2021/03/13 08:59:33;;;;;;;13.85;3.17;;;11.90;74.90;;;;;;5084837;28;20073;-83
2021/03/13 09:02:04;;;;;;;11.18;2.80;;;12.00;75.10;;;;;;5086551;28;20058;-81
2021/03/13 09:04:32;;;;;;;8.63;2.85;;;12.10;75.20;;;;;;5067862;28;20044;-82
2021/03/13 09:06:58;;;;;;;8.50;3.63;;;12.20;75.30;;;;;;5084466;28;20026;-85
2021/03/13 09:09:26;;;;;;;7.57;3.10;;;12.20;75.30;;;;;;5085417;28;20025;-85
2021/03/13 09:11:59;;;;;;;7.47;2.65;;;12.30;75.50;;;;;;5086307;28;20051;-83
2021/03/13 09:14:26;;;;;;;12.50;3.53;;;12.30;75.50;;;;;;5085316;28;20069;-84
2021/03/13 09:16:52;;;;;;;9.45;3.50;;;12.40;75.60;;;;;;5084748;28;20036;-83
2021/03/13 09:19:19;;;;;;;13.05;3.13;;;12.50;75.70;;;;;;5050069;28;20028;-81
2021/03/13 09:21:56;;;;;;;9.25;3.28;;;12.50;75.70;;;;;;5083545;28;20478;-79
2021/03/13 09:24:27;;;;;;;12.65;3.85;;;12.60;75.90;;;;;;5084867;28;20028;-82
2021/03/13 09:26:56;;;;;;;11.57;3.28;;;12.70;76.00;;;;;;5083598;28;20051;-84
2021/03/13 09:29:42;;;;;;;6.75;3.08;;;12.80;76.10;;;;;;5084914;28;20059;-81
2021/03/13 09:32:10;;;;;;;17.42;3.63;;;12.90;76.20;;;;;;5059250;28;20043;-80
2021/03/13 09:34:43;;;;;;;8.45;3.20;;;13.00;76.00;;;;;;5079143;28;20029;-82
2021/03/13 09:37:22;;;;;;;12.98;4.25;;;13.10;75.90;;;;;;5080104;28;20122;-83
2021/03/13 09:40:07;;;;;;;10.80;3.80;;;13.20;75.80;;;;;;5095057;28;20372;-80
2021/03/13 09:42:36;;;;;;;10.85;3.20;;;13.20;75.50;;;;;;5100773;28;20035;-86
2021/03/13 09:45:10;;;;;;;11.05;3.05;;;13.20;75.40;;;;;;5067181;28;20526;-81
2021/03/13 09:47:44;;;;;;;8.93;3.08;;;13.20;75.30;;;;;;5070291;28;20032;-81
2021/03/13 09:50:13;;;;;;;13.05;3.10;;;13.10;75.20;;;;;;5100962;28;20028;-82
2021/03/13 09:52:42;;;;;;;10.35;3.10;;;13.10;75.80;;;;;;5036693;28;20024;-81
2021/03/13 09:55:17;;;;;;;6.72;3.45;;;13.10;75.30;;;;;;5036458;28;20832;-81
2021/03/13 09:57:49;;;;;;;8.15;3.10;;;13.00;75.20;;;;;;5052978;28;20478;-80
2021/03/13 10:00:42;;;;;;;8.35;3.15;;;13.00;75.10;;;;;;5032268;28;20040;-79
2021/03/13 10:03:34;;;;;;;13.82;3.17;;;13.00;75.20;;;;;;5005587;28;20028;-83
2021/03/13 10:06:00;;;;;;;10.55;2.35;;;13.10;75.30;;;;;;5058720;28;20495;-85
2021/03/13 10:08:34;;;;;;;10.23;3.33;;;13.10;75.20;;;;;;5047290;28;20032;-85
2021/03/13 10:11:04;;;;;;;;;;;13.30;75.50;;;;;;5054880;28;20455;-89
2021/03/13 10:13:31;;;;;;;7.35;2.58;;;13.30;75.90;;;;;;5053777;28;19934;-93
2021/03/13 10:15:57;;;;;;;9.23;3.70;;;13.40;75.30;;;;;;5057661;28;20046;-79
2021/03/13 10:18:30;;;;;;;11.05;4.18;;;13.60;75.50;;;;;;5030231;28;20504;-79
2021/03/13 10:21:00;;;;;;;10.93;3.45;;;13.70;75.20;;;;;;5035044;28;20050;-79
2021/03/13 10:23:35;;;;;;;16.48;3.67;;;13.80;75.00;;;;;;5045233;28;20030;-79
2021/03/13 10:26:12;;;;;;;7.53;2.53;;;13.70;74.60;;;;;;5037129;28;20039;-81
2021/03/13 10:28:48;;;;;;;10.30;3.38;;;13.70;74.40;;;;;;5035142;28;20028;-84
2021/03/13 10:31:19;;;;;;;6.57;2.53;;;13.70;74.40;;;;;;5058150;28;20028;-94
2021/03/13 10:33:47;;;;;;;8.63;2.40;;;13.60;74.20;;;;;;5060488;28;20036;-85
2021/03/13 10:36:15;;;;;;;9.43;2.78;;;13.50;74.10;;;;;;5040325;28;20065;-80
2021/03/13 10:38:47;;;;;;;8.35;2.75;;;13.40;74.00;;;;;;5054423;28;20028;-81
2021/03/13 10:41:15;;;;;;;8.05;3.08;;;13.30;73.80;;;;;;5038547;28;20422;-84
2021/03/13 10:43:45;;;;;;;7.63;2.50;;;13.20;73.70;;;;;;5051752;28;20536;-84
2021/03/13 10:46:13;;;;;;;6.22;2.10;;;13.20;73.70;;;;;;5058875;28;20265;-89
2021/03/13 10:48:54;;;;;;;6.00;2.58;;;13.10;73.70;;;;;;5037602;28;20023;-86
2021/03/13 10:51:31;;;;;;;6.32;2.50;;;13.10;73.60;;;;;;5042519;28;20548;-87
2021/03/13 10:53:59;;;;;;;6.47;2.67;;;13.00;73.40;;;;;;5053721;28;20153;-88
2021/03/13 10:56:38;;;;;;;5.50;3.08;;;13.00;73.50;;;;;;5036817;28;20333;-85
2021/03/13 10:59:04;;;;;;;9.85;2.50;;;12.90;73.30;;;;;;5054115;28;20119;-93
2021/03/13 11:01:30;;;;;;;9.43;3.20;;;13.00;73.50;;;;;;5067744;28;20037;-86
2021/03/13 11:03:56;;;;;;;7.18;2.80;;;13.00;73.50;;;;;;5078289;28;20019;-85
2021/03/13 11:06:31;;;;;;;5.95;2.63;;;13.00;73.50;;;;;;5088114;28;20463;-83
2021/03/13 11:08:59;;;;;;;8.73;3.00;;;13.10;73.70;;;;;;5089647;28;20058;-82
2021/03/13 11:11:26;;;;;;;8.68;2.95;;;13.20;73.80;;;;;;5081346;28;20047;-83
2021/03/13 11:13:52;;;;;;;7.35;2.97;;;13.40;74.00;;;;;;5095975;28;20039;-82
2021/03/13 11:16:22;;;;;;;6.45;2.72;;;13.60;74.10;;;;;;5078088;28;20505;-80
2021/03/13 11:18:51;;;;;;;10.68;3.50;;;13.70;74.00;;;;;;5093986;28;20078;-85
2021/03/13 11:21:18;;;;;;;9.50;2.60;;;13.80;73.80;;;;;;5088477;28;20059;-82
2021/03/13 11:23:44;;;;;;;9.77;2.35;;;13.80;73.60;;;;;;5089431;28;20487;-89
2021/03/13 11:26:11;;;;;;;6.22;2.78;;;13.80;73.40;;;;;;5071853;28;20548;-82
2021/03/13 11:28:38;;;;;;;10.52;2.75;;;13.70;73.20;;;;;;5068085;28;20028;-82
2021/03/13 11:31:05;;;;;;;7.50;2.88;;;13.60;73.00;;;;;;5069044;28;20029;-84
2021/03/13 11:33:31;;;;;;;4.85;2.33;;;13.60;73.00;;;;;;5087304;28;20460;-85
2021/03/13 11:35:57;;;;;;;5.80;2.45;;;13.50;72.90;;;;;;5088279;28;20032;-79
2021/03/13 11:38:24;;;;;;;5.93;1.95;;;13.50;73.00;;;;;;5067036;28;20032;-81
2021/03/13 11:40:50;;;;;;;6.63;2.47;;;13.40;72.90;;;;;;5084181;28;20024;-83
2021/03/13 11:43:16;;;;;;;10.70;3.10;;;13.40;72.90;;;;;;5050911;28;20044;-83
2021/03/13 11:45:42;;;;;;;8.95;2.40;;;13.40;72.90;;;;;;5085117;28;20036;-81
2021/03/13 11:48:09;;;;;;;5.43;2.42;;;13.30;72.80;;;;;;5072154;28;20512;-80
2021/03/13 11:50:35;;;;;;;7.78;3.05;;;13.30;72.80;;;;;;5070197;28;20077;-82
2021/03/13 11:53:01;;;;;;;8.85;3.63;;;13.40;73.00;;;;;;5086411;28;20032;-83
2021/03/13 11:55:28;;;;;;;8.40;3.70;;;13.40;73.00;;;;;;5086721;28;20386;-81
2021/03/13 11:57:54;;;;;;;11.75;4.32;;;13.40;73.00;;;;;;5085322;28;20065;-83
2021/03/13 12:00:20;;;;;;;11.18;5.50;;;13.50;73.10;;;;;;5070339;28;20462;-81
2021/03/13 12:02:46;;;;;;;12.50;5.55;;;13.60;73.30;;;;;;5069383;28;20038;-80
2021/03/13 12:05:13;;;;;;;16.67;7.78;;;13.80;73.50;;;;;;5065086;28;20042;-83
2021/03/13 12:07:40;;;;;;;22.38;8.98;;;13.90;73.50;;;;;;5065461;28;20028;-81
2021/03/13 12:10:08;;;;;;;20.70;10.65;;;14.20;73.90;;;;;;5085942;28;20357;-79
2021/03/13 12:12:34;;;;;;;25.08;10.68;;;14.40;73.90;;;;;;5087235;28;20043;-82
2021/03/13 12:15:00;;;;;;;19.75;10.23;;;14.60;73.90;;;;;;5087321;28;20024;-84
2021/03/13 12:17:26;;;;;;;21.67;12.77;;;14.80;73.80;;;;;;5069117;28;20091;-81
2021/03/13 12:19:52;;;;;;;22.80;14.20;;;14.90;73.50;;;;;;5087406;28;20031;-85
2021/03/13 12:22:20;;;;;;;22.58;14.60;;;15.00;73.60;;;;;;5086914;28;20537;-80
2021/03/13 12:24:46;;;;;;;27.70;15.35;;;15.00;73.50;;;;;;5085665;28;20047;-82
2021/03/13 12:27:13;;;;;;;20.92;13.10;;;15.10;73.50;;;;;;5086825;28;20039;-82
2021/03/13 12:29:39;;;;;;;18.23;12.90;;;15.10;73.40;;;;;;5064161;28;20123;-83
2021/03/13 12:32:05;;;;;;;19.77;12.20;;;15.10;73.20;;;;;;5062355;28;20114;-83
2021/03/13 12:34:31;;;;;;;17.27;11.63;;;15.20;73.20;;;;;;5078597;28;20164;-82
2021/03/13 12:36:57;;;;;;;22.80;11.82;;;15.20;73.10;;;;;;5084729;28;20172;-82
2021/03/13 12:39:23;;;;;;;21.23;12.55;;;15.20;72.90;;;;;;5086196;28;20035;-82
2021/03/13 12:41:49;;;;;;;15.35;11.07;;;15.20;72.70;;;;;;5085681;28;20028;-81
2021/03/13 12:44:17;;;;;;;15.65;10.00;;;15.20;72.60;;;;;;5064185;28;20075;-81
2021/03/13 12:46:43;;;;;;;13.85;9.35;;;15.20;72.50;;;;;;5064078;28;20036;-82
2021/03/13 12:49:09;;;;;;;14.00;9.27;;;15.20;72.30;;;;;;5077213;28;20028;-83
2021/03/13 12:51:36;;;;;;;15.38;8.32;;;15.20;72.10;;;;;;5084095;28;20067;-82
2021/03/13 12:54:03;;;;;;;13.88;7.85;;;15.10;71.70;;;;;;5084370;28;20040;-82
2021/03/13 12:56:29;;;;;;;11.73;7.57;;;15.10;71.60;;;;;;5084013;28;20138;-83
2021/03/13 12:58:55;;;;;;;12.35;8.18;;;15.00;71.40;;;;;;5064800;28;20059;-84
2021/03/13 13:01:21;;;;;;;17.20;7.68;;;15.00;71.40;;;;;;5064722;28;20055;-84
2021/03/13 13:04:01;;;;;;;13.13;7.25;;;14.90;71.10;;;;;;5076937;28;20514;-83
2021/03/13 13:06:29;;;;;;;16.02;6.55;;;14.90;70.80;;;;;;5063673;28;20032;-82